Time;durP1;ratioP1;P1;durP2;ratioP2;P2;SDS_P1;SDS_P2;PMS_P1;PMS_P2;Temp;Humidity;BMP_temperature;BMP_pressure;BME280_temperature;BME280_humidity;BME280_pressure;Samples;Min_cycle;Max_cycle;Signal;HPM_P1;HPM_P2
2022/01/09 00:00:21;;;;;;;10.95;9.95;;;4.70;99.90;;;;;;5069484;28;20373;-67
2022/01/09 00:02:47;;;;;;;10.15;9.07;;;4.70;99.90;;;;;;5073459;28;20051;-71
2022/01/09 00:05:13;;;;;;;11.90;10.70;;;4.70;99.90;;;;;;5073773;28;20028;-76
2022/01/09 00:07:40;;;;;;;9.98;9.00;;;4.70;99.90;;;;;;5056346;28;20044;-75
2022/01/09 00:10:07;;;;;;;9.88;8.98;;;4.60;99.90;;;;;;5073351;28;20071;-75
2022/01/09 00:12:33;;;;;;;10.50;9.45;;;4.70;99.90;;;;;;5073767;28;20044;-76
2022/01/09 00:14:59;;;;;;;9.10;8.27;;;4.70;99.90;;;;;;5072540;28;20403;-74
2022/01/09 00:17:24;;;;;;;9.10;8.20;;;4.70;99.90;;;;;;5073461;28;20044;-75
2022/01/09 00:19:50;;;;;;;10.60;9.60;;;4.70;99.90;;;;;;5073470;28;20040;-77
2022/01/09 00:22:20;;;;;;;9.15;8.15;;;4.70;99.90;;;;;;5072705;28;20070;-69
2022/01/09 00:24:45;;;;;;;8.65;7.88;;;4.70;99.90;;;;;;5045545;28;20501;-76
2022/01/09 00:27:11;;;;;;;8.43;7.53;;;4.70;99.90;;;;;;5053183;28;20047;-77
2022/01/09 00:29:37;;;;;;;8.23;7.43;;;4.80;99.90;;;;;;5072929;28;20048;-71
2022/01/09 00:32:02;;;;;;;8.63;7.88;;;4.80;99.90;;;;;;5073838;28;20051;-69
2022/01/09 00:34:28;;;;;;;9.15;8.25;;;4.70;99.90;;;;;;5073122;28;20036;-72
2022/01/09 00:36:54;;;;;;;8.05;7.35;;;4.80;99.90;;;;;;5072443;28;20040;-78
2022/01/09 00:39:19;;;;;;;7.78;7.07;;;4.80;99.90;;;;;;5056144;28;20504;-75
2022/01/09 00:41:45;;;;;;;7.65;6.95;;;4.80;99.90;;;;;;5073007;28;20052;-77
2022/01/09 00:44:11;;;;;;;7.97;7.18;;;4.80;99.90;;;;;;5072666;28;20048;-78
2022/01/09 00:46:37;;;;;;;8.18;7.45;;;4.80;99.90;;;;;;5046685;28;20063;-71
2022/01/09 00:49:04;;;;;;;8.38;7.68;;;4.80;99.90;;;;;;5055904;28;20536;-77
2022/01/09 00:51:30;;;;;;;7.32;6.63;;;4.80;99.90;;;;;;5056032;28;20048;-77
2022/01/09 00:53:55;;;;;;;7.85;7.15;;;4.80;99.90;;;;;;5072983;28;20046;-77
2022/01/09 00:56:21;;;;;;;8.20;7.50;;;4.90;99.90;;;;;;5072863;28;20111;-69
2022/01/09 00:58:47;;;;;;;7.75;7.05;;;4.90;99.90;;;;;;5055757;28;20131;-71
2022/01/09 01:01:12;;;;;;;7.45;6.75;;;4.90;99.90;;;;;;5047475;28;20041;-77
2022/01/09 01:03:38;;;;;;;8.02;7.22;;;4.90;99.90;;;;;;5036560;28;20049;-78
2022/01/09 01:06:04;;;;;;;7.88;7.18;;;4.90;99.90;;;;;;5070072;28;20044;-75
2022/01/09 01:08:30;;;;;;;8.43;7.72;;;4.90;99.90;;;;;;5056442;28;20043;-78
2022/01/09 01:10:55;;;;;;;7.18;6.57;;;4.90;99.90;;;;;;5058570;28;20051;-79
2022/01/09 01:13:21;;;;;;;8.35;7.65;;;4.90;99.90;;;;;;5056592;28;20056;-74
2022/01/09 01:15:46;;;;;;;8.00;7.25;;;4.90;99.90;;;;;;5072556;28;20048;-75
2022/01/09 01:18:12;;;;;;;8.20;7.45;;;4.90;99.90;;;;;;5055671;28;20042;-78
2022/01/09 01:20:38;;;;;;;9.48;8.68;;;5.00;99.90;;;;;;5045753;28;20587;-78
2022/01/09 01:23:04;;;;;;;8.98;8.07;;;5.00;99.90;;;;;;5073389;28;20408;-72
2022/01/09 01:25:29;;;;;;;9.43;8.60;;;5.00;99.90;;;;;;5071886;28;20056;-78
2022/01/09 01:27:55;;;;;;;10.32;9.38;;;4.90;99.90;;;;;;5070768;28;20052;-79
2022/01/09 01:30:21;;;;;;;9.23;8.43;;;4.90;99.90;;;;;;5065371;28;20048;-72
2022/01/09 01:32:47;;;;;;;7.93;7.22;;;4.90;99.90;;;;;;5072201;28;20040;-71
2022/01/09 01:35:13;;;;;;;9.20;8.40;;;5.00;99.90;;;;;;5072442;28;20036;-76
2022/01/09 01:37:42;;;;;;;9.15;8.25;;;5.00;99.90;;;;;;5072609;28;20466;-76
2022/01/09 01:40:10;;;;;;;9.13;7.35;;;5.00;99.90;;;;;;5071405;28;20040;-72
2022/01/09 01:42:36;;;;;;;8.32;7.53;;;5.10;99.90;;;;;;5073045;28;20044;-71
2022/01/09 01:45:02;;;;;;;9.05;8.15;;;5.10;99.90;;;;;;5071821;28;20056;-75
2022/01/09 01:47:28;;;;;;;8.20;7.40;;;5.10;99.90;;;;;;5071845;28;20063;-75
2022/01/09 01:49:54;;;;;;;7.68;6.97;;;5.10;99.90;;;;;;5071418;28;20044;-77
2022/01/09 01:52:26;;;;;;;7.78;7.07;;;5.10;99.90;;;;;;5072730;28;20047;-77
2022/01/09 01:54:52;;;;;;;6.65;5.97;;;5.20;99.90;;;;;;5071706;28;20388;-74
2022/01/09 01:57:17;;;;;;;9.18;6.72;;;5.20;99.90;;;;;;5072225;28;20492;-76
2022/01/09 01:59:43;;;;;;;7.22;5.50;;;5.30;99.90;;;;;;5071724;28;20127;-76
2022/01/09 02:02:09;;;;;;;6.65;4.65;;;5.30;99.90;;;;;;5072177;28;20416;-75
2022/01/09 02:04:34;;;;;;;6.75;3.65;;;5.30;99.90;;;;;;5055622;28;20115;-76
2022/01/09 02:07:03;;;;;;;7.68;2.47;;;5.40;99.90;;;;;;5071817;28;20047;-69
2022/01/09 02:09:29;;;;;;;8.98;2.45;;;5.40;99.90;;;;;;5071756;28;20090;-75
2022/01/09 02:11:54;;;;;;;9.57;1.73;;;5.60;99.90;;;;;;5055875;28;20076;-77
2022/01/09 02:14:20;;;;;;;9.18;1.73;;;5.60;99.90;;;;;;5054645;28;20127;-76
2022/01/09 02:16:48;;;;;;;8.23;1.42;;;5.60;99.90;;;;;;5072471;28;20048;-76
2022/01/09 02:19:15;;;;;;;12.30;1.33;;;5.70;99.90;;;;;;5071584;28;20074;-75
2022/01/09 02:21:43;;;;;;;9.25;1.15;;;5.70;99.90;;;;;;5055855;28;20051;-77
2022/01/09 02:24:09;;;;;;;11.13;1.48;;;5.70;99.90;;;;;;5058695;28;20100;-76
2022/01/09 02:26:38;;;;;;;10.00;1.00;;;5.80;99.90;;;;;;5059764;28;20048;-80
2022/01/09 02:29:07;;;;;;;11.30;1.23;;;5.80;99.90;;;;;;5075040;28;20079;-71
2022/01/09 02:31:34;;;;;;;10.88;1.30;;;5.90;99.90;;;;;;5075878;28;20085;-80
2022/01/09 02:34:00;;;;;;;16.08;1.50;;;5.90;99.90;;;;;;5075258;28;20083;-80
2022/01/09 02:36:25;;;;;;;10.75;1.30;;;5.90;99.90;;;;;;5075129;28;20106;-70
2022/01/09 02:38:51;;;;;;;9.50;1.20;;;5.90;99.90;;;;;;5074587;28;20040;-79
2022/01/09 02:41:18;;;;;;;18.27;2.05;;;6.00;99.90;;;;;;5075313;28;20416;-79
2022/01/09 02:43:44;;;;;;;16.17;1.70;;;6.00;99.90;;;;;;5074805;28;20054;-76
2022/01/09 02:46:17;;;;;;;17.02;1.73;;;6.00;99.90;;;;;;5058905;28;20048;-78
2022/01/09 02:48:44;;;;;;;19.67;1.65;;;6.00;99.90;;;;;;5055241;28;20446;-77
2022/01/09 02:51:16;;;;;;;14.15;1.60;;;6.00;99.90;;;;;;5058435;28;20128;-77
2022/01/09 02:53:45;;;;;;;12.88;1.80;;;6.00;99.90;;;;;;5074776;28;20051;-78
2022/01/09 02:56:11;;;;;;;19.27;1.98;;;6.00;99.90;;;;;;5074248;28;20036;-78
2022/01/09 02:58:37;;;;;;;22.17;2.58;;;6.00;99.90;;;;;;5074648;28;20401;-77
2022/01/09 03:01:07;;;;;;;20.27;1.73;;;6.00;99.90;;;;;;5075672;28;20044;-72
2022/01/09 03:03:33;;;;;;;20.92;2.88;;;6.00;99.90;;;;;;5092331;28;20925;-77
2022/01/09 03:05:59;;;;;;;21.40;2.55;;;6.00;99.90;;;;;;5075471;28;20090;-77
2022/01/09 03:08:25;;;;;;;20.83;2.58;;;6.00;99.90;;;;;;5073958;28;20079;-74
2022/01/09 03:10:51;;;;;;;23.50;2.45;;;6.00;99.90;;;;;;5074628;28;20032;-76
2022/01/09 03:13:16;;;;;;;26.45;2.60;;;6.00;99.90;;;;;;5074648;28;20055;-73
2022/01/09 03:15:42;;;;;;;26.35;2.97;;;6.00;99.90;;;;;;5075381;28;20123;-75
2022/01/09 03:18:08;;;;;;;29.15;3.70;;;6.10;99.90;;;;;;5073616;28;20036;-71
2022/01/09 03:20:33;;;;;;;23.33;2.70;;;6.10;99.90;;;;;;5058452;28;20079;-74
2022/01/09 03:22:59;;;;;;;32.15;3.75;;;6.10;99.90;;;;;;5057682;28;20066;-75
2022/01/09 03:25:26;;;;;;;22.00;3.05;;;6.10;99.90;;;;;;5057388;28;20036;-75
2022/01/09 03:27:53;;;;;;;36.80;2.95;;;6.10;99.90;;;;;;5074151;28;20074;-76
2022/01/09 03:30:21;;;;;;;29.58;3.67;;;6.00;99.90;;;;;;5092923;28;20070;-71
2022/01/09 03:32:48;;;;;;;40.42;4.35;;;6.10;99.90;;;;;;5073151;28;20047;-68
2022/01/09 03:35:19;;;;;;;26.02;3.20;;;6.10;99.90;;;;;;5074689;28;20055;-75
2022/01/09 03:37:47;;;;;;;27.00;3.42;;;6.10;99.90;;;;;;5073664;28;20071;-74
2022/01/09 03:40:15;;;;;;;28.63;4.00;;;6.10;99.90;;;;;;5074233;28;20377;-68
2022/01/09 03:42:41;;;;;;;25.35;2.85;;;6.10;99.90;;;;;;5073449;28;20051;-76
2022/01/09 03:45:08;;;;;;;21.83;2.40;;;6.10;99.90;;;;;;5074729;28;20059;-72
2022/01/09 03:47:37;;;;;;;25.60;3.03;;;6.20;99.90;;;;;;5056319;28;20052;-75
2022/01/09 03:50:08;;;;;;;28.92;2.92;;;6.20;99.90;;;;;;5074067;28;20071;-76
2022/01/09 03:52:36;;;;;;;25.67;2.65;;;6.10;99.90;;;;;;5073274;28;20396;-74
2022/01/09 03:55:03;;;;;;;21.15;2.65;;;6.20;99.90;;;;;;5074198;28;20048;-75
2022/01/09 03:57:29;;;;;;;21.83;3.10;;;6.20;99.90;;;;;;5056387;28;20820;-74
2022/01/09 03:59:55;;;;;;;19.25;2.28;;;6.20;99.90;;;;;;5073502;28;20036;-75
2022/01/09 04:02:21;;;;;;;20.73;2.63;;;6.20;99.90;;;;;;5091685;28;20051;-76
2022/01/09 04:04:46;;;;;;;25.00;2.72;;;6.20;99.90;;;;;;5074104;28;20044;-73
2022/01/09 04:07:12;;;;;;;20.10;2.67;;;6.20;99.90;;;;;;5049519;28;20128;-74
2022/01/09 04:09:39;;;;;;;22.65;3.03;;;6.20;99.90;;;;;;5055440;28;20055;-76
2022/01/09 04:12:18;;;;;;;21.77;2.45;;;6.20;99.90;;;;;;5073507;28;20035;-76
2022/01/09 04:14:47;;;;;;;31.35;2.67;;;6.20;99.90;;;;;;5073516;28;20071;-77
2022/01/09 04:17:22;;;;;;;20.13;2.22;;;6.20;99.90;;;;;;5073094;28;20039;-76
2022/01/09 04:19:48;;;;;;;24.52;2.15;;;6.10;99.90;;;;;;5073494;28;20036;-75
2022/01/09 04:22:13;;;;;;;20.33;2.60;;;6.20;99.90;;;;;;5056116;28;20096;-73
2022/01/09 04:24:39;;;;;;;24.45;2.10;;;6.20;99.90;;;;;;5073845;28;20104;-76
2022/01/09 04:27:05;;;;;;;21.42;2.38;;;6.20;99.90;;;;;;5056589;28;20051;-75
2022/01/09 04:29:31;;;;;;;21.63;1.90;;;6.20;99.90;;;;;;5073209;28;20401;-76
2022/01/09 04:31:56;;;;;;;19.08;1.92;;;6.10;99.90;;;;;;5073074;28;20048;-76
2022/01/09 04:34:22;;;;;;;20.02;2.00;;;6.10;99.90;;;;;;5073571;28;20032;-69
2022/01/09 04:36:47;;;;;;;13.18;1.35;;;6.10;99.90;;;;;;5072406;28;20089;-76
2022/01/09 04:39:13;;;;;;;17.13;1.88;;;6.10;99.90;;;;;;5072771;28;20048;-76
2022/01/09 04:41:38;;;;;;;18.00;1.33;;;6.10;99.90;;;;;;5073231;28;20047;-75
2022/01/09 04:44:04;;;;;;;13.45;1.92;;;6.10;99.90;;;;;;5072060;28;20051;-71
2022/01/09 04:46:40;;;;;;;10.68;1.00;;;6.00;99.90;;;;;;5055578;28;20106;-70
2022/01/09 04:49:05;;;;;;;14.15;1.05;;;6.00;99.90;;;;;;5070677;28;20059;-76
2022/01/09 04:51:31;;;;;;;9.73;0.65;;;6.00;99.90;;;;;;5059384;28;20501;-74
2022/01/09 04:53:57;;;;;;;11.30;1.17;;;6.10;99.90;;;;;;5072935;28;20052;-71
2022/01/09 04:56:22;;;;;;;10.38;0.73;;;6.10;99.90;;;;;;5072527;28;20040;-73
2022/01/09 04:58:48;;;;;;;11.45;0.70;;;6.10;99.90;;;;;;5073133;28;20392;-68
2022/01/09 05:01:13;;;;;;;9.48;0.73;;;6.00;99.90;;;;;;5072943;28;20121;-74
2022/01/09 05:03:39;;;;;;;13.85;0.70;;;6.00;99.90;;;;;;5071971;28;20458;-73
2022/01/09 05:06:04;;;;;;;9.13;1.05;;;6.00;99.90;;;;;;5056324;28;20043;-75
2022/01/09 05:08:30;;;;;;;12.35;1.17;;;6.00;99.90;;;;;;5055787;28;20044;-74
2022/01/09 05:10:56;;;;;;;16.30;0.95;;;6.00;99.90;;;;;;5055589;28;20502;-74
2022/01/09 05:13:21;;;;;;;9.45;1.23;;;6.00;99.90;;;;;;5056312;28;20130;-73
2022/01/09 05:15:48;;;;;;;19.42;1.58;;;6.00;99.90;;;;;;5073104;28;20047;-72
2022/01/09 05:18:14;;;;;;;16.13;1.23;;;5.90;99.90;;;;;;5089452;28;20093;-74
2022/01/09 05:20:43;;;;;;;12.88;1.35;;;5.90;99.90;;;;;;5073052;28;20075;-76
2022/01/09 05:23:10;;;;;;;15.70;1.60;;;5.90;99.90;;;;;;5038712;28;20435;-75
2022/01/09 05:25:35;;;;;;;19.35;1.92;;;5.90;99.90;;;;;;5035935;28;20033;-75
2022/01/09 05:28:01;;;;;;;20.50;1.83;;;5.90;99.90;;;;;;5069940;28;20098;-71
2022/01/09 05:30:26;;;;;;;10.98;1.13;;;6.00;99.90;;;;;;5055925;28;20385;-72
2022/01/09 05:32:52;;;;;;;10.43;1.33;;;6.00;99.90;;;;;;5071624;28;20136;-73
2022/01/09 05:35:18;;;;;;;12.25;1.30;;;5.90;99.90;;;;;;5072920;28;20815;-73
2022/01/09 05:37:43;;;;;;;17.42;1.95;;;6.00;99.90;;;;;;5072522;28;20040;-72
2022/01/09 05:40:10;;;;;;;12.50;1.20;;;5.90;99.90;;;;;;5072265;28;20101;-72
2022/01/09 05:42:35;;;;;;;14.88;1.25;;;5.90;99.90;;;;;;5072798;28;20047;-69
2022/01/09 05:45:02;;;;;;;16.42;1.70;;;5.90;99.90;;;;;;5072075;28;20507;-72
2022/01/09 05:47:28;;;;;;;14.45;1.77;;;5.90;99.90;;;;;;5055774;28;20047;-71
2022/01/09 05:49:54;;;;;;;12.75;1.10;;;5.90;99.90;;;;;;5072062;28;20040;-72
2022/01/09 05:52:19;;;;;;;10.00;1.08;;;5.90;99.90;;;;;;5071499;28;20779;-73
2022/01/09 05:54:45;;;;;;;9.88;0.90;;;5.80;99.90;;;;;;5072573;28;20064;-73
2022/01/09 05:57:11;;;;;;;11.68;0.90;;;5.80;99.90;;;;;;5075250;28;20539;-74
2022/01/09 05:59:36;;;;;;;13.52;0.90;;;5.80;99.90;;;;;;5076058;28;20040;-74
2022/01/09 06:02:02;;;;;;;19.40;2.20;;;5.80;99.90;;;;;;5056102;28;20549;-73
2022/01/09 06:04:28;;;;;;;10.40;0.90;;;5.80;99.90;;;;;;5076529;28;20079;-73
2022/01/09 06:06:54;;;;;;;16.33;1.33;;;5.80;99.90;;;;;;5058339;28;20117;-72
2022/01/09 06:09:21;;;;;;;11.65;1.10;;;5.80;99.90;;;;;;5075952;28;20522;-74
2022/01/09 06:11:46;;;;;;;9.45;1.00;;;5.70;99.90;;;;;;5075880;28;20124;-74
2022/01/09 06:14:12;;;;;;;10.80;0.75;;;5.70;99.90;;;;;;5075045;28;20127;-75
2022/01/09 06:16:37;;;;;;;8.55;0.52;;;5.70;99.90;;;;;;5059409;28;20408;-73
2022/01/09 06:19:03;;;;;;;11.80;1.08;;;5.70;99.90;;;;;;5075672;28;20105;-75
2022/01/09 06:21:28;;;;;;;7.43;1.25;;;5.70;99.90;;;;;;5048189;28;20047;-72
2022/01/09 06:23:54;;;;;;;12.60;0.80;;;5.70;99.90;;;;;;5075702;28;20040;-74
2022/01/09 06:26:20;;;;;;;11.38;0.90;;;5.70;99.90;;;;;;5075513;28;20051;-72
2022/01/09 06:28:46;;;;;;;7.82;0.70;;;5.70;99.90;;;;;;5075235;28;20080;-74
2022/01/09 06:31:12;;;;;;;7.97;0.60;;;5.70;99.90;;;;;;5075104;28;20507;-73
2022/01/09 06:33:37;;;;;;;7.90;1.02;;;5.70;99.90;;;;;;5059147;28;20090;-70
2022/01/09 06:36:03;;;;;;;9.70;1.20;;;5.70;99.90;;;;;;5075236;28;20560;-73
2022/01/09 06:38:29;;;;;;;8.18;0.80;;;5.70;99.90;;;;;;5075251;28;20546;-72
2022/01/09 06:40:55;;;;;;;7.82;0.57;;;5.60;99.90;;;;;;5075363;28;20070;-72
2022/01/09 06:43:20;;;;;;;6.38;0.65;;;5.60;99.90;;;;;;5058007;28;20032;-71
2022/01/09 06:45:46;;;;;;;7.95;0.77;;;5.50;99.90;;;;;;5075249;28;20501;-72
2022/01/09 06:48:11;;;;;;;8.43;0.73;;;5.50;99.90;;;;;;5075237;28;20056;-73
2022/01/09 06:50:37;;;;;;;4.85;0.70;;;5.50;99.90;;;;;;5075333;28;20397;-71
2022/01/09 06:53:03;;;;;;;6.65;0.40;;;5.50;99.90;;;;;;5074997;28;20127;-72
2022/01/09 06:55:28;;;;;;;6.47;0.50;;;5.40;99.90;;;;;;5074528;28;20063;-72
2022/01/09 06:57:54;;;;;;;4.57;0.50;;;5.50;99.90;;;;;;5075008;28;20056;-72
2022/01/09 07:00:21;;;;;;;4.50;0.35;;;5.40;99.90;;;;;;5074853;28;20458;-72
2022/01/09 07:02:47;;;;;;;4.05;0.50;;;5.40;99.90;;;;;;5074084;28;20381;-71
2022/01/09 07:05:13;;;;;;;6.57;0.40;;;5.40;99.90;;;;;;5075050;28;20446;-72
2022/01/09 07:07:39;;;;;;;6.68;0.43;;;5.40;99.90;;;;;;5073971;28;20102;-72
2022/01/09 07:10:06;;;;;;;3.58;0.30;;;5.40;99.90;;;;;;5074435;28;20036;-71
2022/01/09 07:12:31;;;;;;;5.35;0.35;;;5.40;99.90;;;;;;5074785;28;20123;-71
2022/01/09 07:14:57;;;;;;;5.72;0.32;;;5.30;99.90;;;;;;5075127;28;20127;-70
2022/01/09 07:17:23;;;;;;;7.50;0.47;;;5.30;99.90;;;;;;5074297;28;20076;-72
2022/01/09 07:19:48;;;;;;;8.13;0.30;;;5.30;99.90;;;;;;5057997;28;20496;-71
2022/01/09 07:22:14;;;;;;;7.32;0.45;;;5.30;99.90;;;;;;5057933;28;20077;-72
2022/01/09 07:24:39;;;;;;;7.13;0.63;;;5.30;99.90;;;;;;5073979;28;20381;-75
2022/01/09 07:27:05;;;;;;;7.40;0.80;;;5.20;99.90;;;;;;5058015;28;20135;-74
2022/01/09 07:29:31;;;;;;;8.55;0.75;;;5.30;99.90;;;;;;5074438;28;20094;-73
2022/01/09 07:31:57;;;;;;;5.47;0.82;;;5.20;99.90;;;;;;5056583;28;20040;-73
2022/01/09 07:34:22;;;;;;;5.68;0.40;;;5.30;99.90;;;;;;5074542;28;20044;-72
2022/01/09 07:36:48;;;;;;;8.60;0.55;;;5.20;99.90;;;;;;5074377;28;20054;-72
2022/01/09 07:39:14;;;;;;;6.32;0.30;;;5.20;99.90;;;;;;5073428;28;20439;-72
2022/01/09 07:41:40;;;;;;;9.68;0.60;;;5.20;99.90;;;;;;5074245;28;20047;-73
2022/01/09 07:44:06;;;;;;;5.38;0.70;;;5.20;99.90;;;;;;5074332;28;20052;-72
2022/01/09 07:46:31;;;;;;;8.57;0.60;;;5.20;99.90;;;;;;5073197;28;20109;-69
2022/01/09 07:48:57;;;;;;;6.28;0.30;;;5.20;99.90;;;;;;5074044;28;20083;-70
2022/01/09 07:51:23;;;;;;;3.85;0.30;;;5.20;99.90;;;;;;5074335;28;20853;-72
2022/01/09 07:53:49;;;;;;;5.65;0.57;;;5.30;99.90;;;;;;5073372;28;20088;-71
2022/01/09 07:56:14;;;;;;;7.13;0.50;;;5.30;99.90;;;;;;5073802;28;20040;-71
2022/01/09 07:58:40;;;;;;;5.25;0.30;;;5.40;99.90;;;;;;5073292;28;20048;-73
2022/01/09 08:01:06;;;;;;;6.45;0.30;;;5.30;99.90;;;;;;5073762;28;20127;-71
2022/01/09 08:03:32;;;;;;;7.05;0.50;;;5.30;99.90;;;;;;5073632;28;20043;-71
2022/01/09 08:05:57;;;;;;;9.10;0.60;;;5.30;99.90;;;;;;5070410;28;20054;-71
2022/01/09 08:08:23;;;;;;;8.60;0.63;;;5.30;99.90;;;;;;5056205;28;20048;-70
2022/01/09 08:10:48;;;;;;;7.20;0.65;;;5.30;99.90;;;;;;5073376;28;20562;-70
2022/01/09 08:13:14;;;;;;;8.55;0.43;;;5.40;99.90;;;;;;5055940;28;20051;-71
2022/01/09 08:15:41;;;;;;;7.07;0.45;;;5.40;99.90;;;;;;5073160;28;20048;-71
2022/01/09 08:18:06;;;;;;;7.55;0.40;;;5.40;99.90;;;;;;5056902;28;20416;-72
2022/01/09 08:20:32;;;;;;;6.80;0.50;;;5.30;99.90;;;;;;5072502;28;20036;-71
2022/01/09 08:22:58;;;;;;;4.47;0.38;;;5.30;99.90;;;;;;5056790;28;20051;-71
2022/01/09 08:25:24;;;;;;;7.30;0.57;;;5.30;99.90;;;;;;5073003;28;20040;-71
2022/01/09 08:27:50;;;;;;;5.25;0.40;;;5.30;99.90;;;;;;5072857;28;20044;-72
2022/01/09 08:30:18;;;;;;;5.63;0.73;;;5.20;99.90;;;;;;5052003;28;20476;-69
2022/01/09 08:32:44;;;;;;;10.13;0.68;;;5.20;99.90;;;;;;5072750;28;20128;-71
2022/01/09 08:35:10;;;;;;;8.20;0.52;;;5.20;99.90;;;;;;5072888;28;20119;-71
2022/01/09 08:37:36;;;;;;;11.40;1.13;;;5.10;99.90;;;;;;5047768;28;20044;-70
2022/01/09 08:40:03;;;;;;;11.48;0.93;;;5.20;99.90;;;;;;5071765;28;20093;-73
2022/01/09 08:42:29;;;;;;;5.25;0.40;;;5.20;99.90;;;;;;5071807;28;20060;-73
2022/01/09 08:44:54;;;;;;;11.10;0.73;;;5.20;99.90;;;;;;5072528;28;20511;-73
2022/01/09 08:47:22;;;;;;;11.90;0.90;;;5.20;99.90;;;;;;5072554;28;20056;-72
2022/01/09 08:49:48;;;;;;;13.55;0.70;;;5.20;99.90;;;;;;5071040;28;20044;-74
2022/01/09 08:52:14;;;;;;;10.32;0.93;;;5.20;99.90;;;;;;5072867;28;20560;-72
2022/01/09 08:54:39;;;;;;;6.25;0.65;;;5.20;99.90;;;;;;5041984;28;20039;-72
2022/01/09 08:57:06;;;;;;;12.40;1.02;;;5.30;99.90;;;;;;5069400;28;20443;-71
2022/01/09 08:59:32;;;;;;;9.07;0.80;;;5.30;99.90;;;;;;5073048;28;20427;-69
2022/01/09 09:01:57;;;;;;;10.93;0.70;;;5.30;99.90;;;;;;5072254;28;20047;-69
2022/01/09 09:04:24;;;;;;;8.35;0.50;;;5.30;99.90;;;;;;5090944;28;20051;-69
2022/01/09 09:06:50;;;;;;;4.13;0.70;;;5.30;99.90;;;;;;5072643;28;20036;-71
2022/01/09 09:09:15;;;;;;;5.63;0.40;;;5.40;99.90;;;;;;5072340;28;20801;-72
2022/01/09 09:11:41;;;;;;;8.88;0.50;;;5.40;99.90;;;;;;5072555;28;20115;-74
2022/01/09 09:14:07;;;;;;;4.63;0.50;;;5.40;99.90;;;;;;5072758;28;20123;-69
2022/01/09 09:16:33;;;;;;;7.25;0.60;;;5.40;99.90;;;;;;5072136;28;20115;-70
2022/01/09 09:18:58;;;;;;;4.78;0.38;;;5.40;99.90;;;;;;5055690;28;20044;-72
2022/01/09 09:21:24;;;;;;;5.60;0.45;;;5.50;99.90;;;;;;5072282;28;20029;-72
2022/01/09 09:23:50;;;;;;;4.25;0.45;;;5.50;99.90;;;;;;5055766;28;20373;-74
2022/01/09 09:26:21;;;;;;;9.20;0.63;;;5.50;99.90;;;;;;5072437;28;20039;-72
2022/01/09 09:28:47;;;;;;;5.18;0.30;;;5.50;99.90;;;;;;5071938;28;20059;-70
2022/01/09 09:31:13;;;;;;;5.13;0.30;;;5.50;99.90;;;;;;5073097;28;20036;-72
2022/01/09 09:33:39;;;;;;;8.15;1.13;;;5.50;99.90;;;;;;5075639;28;20039;-71
2022/01/09 09:36:05;;;;;;;7.10;0.50;;;5.60;99.90;;;;;;5060526;28;20047;-71
2022/01/09 09:38:30;;;;;;;7.43;0.40;;;5.60;99.90;;;;;;5074217;28;20050;-71
2022/01/09 09:40:57;;;;;;;3.47;0.50;;;5.60;99.90;;;;;;5076855;28;20044;-72
2022/01/09 09:43:23;;;;;;;8.20;0.50;;;5.60;99.90;;;;;;5076331;28;20040;-70
2022/01/09 09:45:49;;;;;;;5.50;0.30;;;5.60;99.90;;;;;;5061203;28;20056;-70
2022/01/09 09:48:14;;;;;;;10.05;0.70;;;5.70;99.90;;;;;;5075636;28;20063;-72
2022/01/09 09:50:40;;;;;;;7.57;0.32;;;5.70;99.90;;;;;;5075935;28;20040;-73
2022/01/09 09:53:06;;;;;;;7.07;0.47;;;5.80;99.90;;;;;;5075963;28;20055;-70
2022/01/09 09:55:32;;;;;;;6.95;0.60;;;5.80;99.90;;;;;;5073712;28;20089;-71
2022/01/09 09:57:58;;;;;;;10.02;0.70;;;5.80;99.90;;;;;;5075517;28;20048;-70
2022/01/09 10:00:25;;;;;;;5.07;0.68;;;5.80;99.90;;;;;;5052865;28;20119;-71
2022/01/09 10:03:01;;;;;;;9.43;1.00;;;5.90;99.90;;;;;;5076156;28;20079;-71
2022/01/09 10:05:32;;;;;;;4.85;0.90;;;5.90;99.90;;;;;;5075377;28;20043;-71
2022/01/09 10:08:11;;;;;;;13.65;0.60;;;5.90;99.90;;;;;;5076304;28;20371;-70
2022/01/09 10:10:39;;;;;;;10.30;1.30;;;6.00;99.90;;;;;;5094492;28;20079;-70
2022/01/09 10:13:11;;;;;;;9.88;0.80;;;6.10;99.90;;;;;;5058905;28;20054;-71
2022/01/09 10:15:56;;;;;;;;;;;6.00;99.90;;;;;;5071227;28;20492;-71
2022/01/09 10:18:42;;;;;;;12.45;0.90;;;6.00;99.90;;;;;;5056679;28;19923;-71
2022/01/09 10:21:08;;;;;;;10.02;1.00;;;6.10;99.90;;;;;;5073073;28;20056;-72
2022/01/09 10:23:34;;;;;;;8.80;0.63;;;6.10;99.90;;;;;;5070462;28;20060;-71
2022/01/09 10:26:11;;;;;;;10.38;1.20;;;6.20;99.90;;;;;;5075014;28;20036;-71
2022/01/09 10:28:38;;;;;;;11.60;0.80;;;6.20;99.90;;;;;;5075761;28;20101;-70
2022/01/09 10:31:15;;;;;;;7.45;1.08;;;6.20;99.90;;;;;;5075854;28;20047;-70
2022/01/09 10:33:40;;;;;;;9.38;0.63;;;6.30;99.90;;;;;;5074799;28;20054;-71
2022/01/09 10:36:06;;;;;;;7.55;0.68;;;6.20;99.90;;;;;;5076485;28;20134;-71
2022/01/09 10:38:32;;;;;;;11.40;0.82;;;6.30;99.90;;;;;;5075381;28;20044;-71
2022/01/09 10:41:03;;;;;;;11.13;1.10;;;6.30;99.90;;;;;;5040029;28;20049;-69
2022/01/09 10:43:40;;;;;;;9.98;1.08;;;6.20;99.90;;;;;;5048614;28;20549;-71
2022/01/09 10:46:07;;;;;;;9.18;0.98;;;6.30;99.90;;;;;;5075320;28;20048;-71
2022/01/09 10:48:34;;;;;;;8.65;1.08;;;6.30;99.90;;;;;;5075016;28;20396;-70
2022/01/09 10:51:01;;;;;;;10.45;0.98;;;6.30;99.90;;;;;;5075322;28;20484;-70
2022/01/09 10:53:32;;;;;;;7.97;0.88;;;6.20;99.90;;;;;;5057696;28;20056;-70
2022/01/09 10:56:10;;;;;;;8.88;0.70;;;6.30;99.90;;;;;;5058888;28;20486;-70
2022/01/09 10:58:44;;;;;;;14.10;1.33;;;6.30;99.90;;;;;;5058879;28;20090;-71
2022/01/09 11:01:28;;;;;;;13.77;1.10;;;6.30;99.90;;;;;;5057847;28;20373;-71
2022/01/09 11:04:01;;;;;;;9.85;1.27;;;6.40;99.90;;;;;;5074894;28;20660;-71
2022/01/09 11:06:30;;;;;;;10.20;1.05;;;6.40;99.90;;;;;;5075509;28;20447;-70
2022/01/09 11:08:56;;;;;;;8.52;0.93;;;6.50;99.90;;;;;;5057226;28;20051;-71
2022/01/09 11:13:55;;;;;;;13.77;1.27;;;6.60;99.90;;;;;;5074861;28;20493;-70
2022/01/09 11:16:33;;;;;;;9.90;1.02;;;6.70;99.90;;;;;;5075120;28;20380;-71
2022/01/09 11:19:33;;;;;;;10.90;0.80;;;6.80;99.90;;;;;;5074711;28;20575;-70
2022/01/09 11:22:05;;;;;;;8.95;1.00;;;6.90;99.90;;;;;;5020788;28;20613;-70
2022/01/09 11:24:49;;;;;;;8.18;1.02;;;7.00;99.90;;;;;;5041846;28;20040;-71
2022/01/09 11:27:22;;;;;;;12.40;1.00;;;7.00;99.90;;;;;;5072231;28;20059;-71
2022/01/09 11:30:11;;;;;;;13.75;1.30;;;7.00;99.90;;;;;;5074134;28;20488;-70
2022/01/09 11:32:58;;;;;;;8.95;0.70;;;7.00;99.90;;;;;;5054959;28;20493;-70
2022/01/09 11:36:04;;;;;;;11.73;1.27;;;7.00;99.90;;;;;;5040342;28;20047;-71
2022/01/09 11:38:45;;;;;;;7.90;0.93;;;7.00;99.90;;;;;;5074461;28;20512;-70
2022/01/09 11:41:26;;;;;;;9.40;0.70;;;7.00;99.90;;;;;;5074469;28;20448;-71
2022/01/09 11:44:00;;;;;;;12.82;1.20;;;7.10;99.90;;;;;;5073097;28;20549;-72
2022/01/09 11:46:29;;;;;;;10.15;0.95;;;7.10;99.90;;;;;;5073691;28;20103;-69
2022/01/09 11:48:55;;;;;;;10.85;1.13;;;7.20;99.90;;;;;;5073795;28;20547;-72
2022/01/09 11:51:27;;;;;;;17.25;1.58;;;7.20;99.90;;;;;;5057744;28;20488;-70
2022/01/09 11:54:02;;;;;;;7.57;0.98;;;7.30;99.90;;;;;;5062103;28;20087;-70
2022/01/09 11:56:46;;;;;;;9.40;0.68;;;7.50;99.90;;;;;;5056947;28;20054;-70
2022/01/09 11:59:23;;;;;;;13.55;1.38;;;7.60;99.80;;;;;;5071669;28;20040;-71
2022/01/09 12:01:51;;;;;;;6.78;0.70;;;7.70;99.60;;;;;;5070546;28;20065;-70
2022/01/09 12:04:32;;;;;;;7.10;0.80;;;7.60;99.50;;;;;;5072467;28;20052;-71
2022/01/09 12:07:07;;;;;;;7.97;0.82;;;7.60;99.20;;;;;;5053860;28;20093;-69
2022/01/09 12:09:47;;;;;;;10.50;0.75;;;7.50;98.30;;;;;;5064982;28;20044;-71
2022/01/09 12:12:33;;;;;;;5.35;0.50;;;7.30;98.20;;;;;;5068493;28;20083;-71
2022/01/09 12:15:04;;;;;;;5.25;0.52;;;7.20;98.60;;;;;;5061593;28;20089;-71
2022/01/09 12:17:40;;;;;;;7.32;0.82;;;7.20;98.70;;;;;;5079528;28;20060;-70
2022/01/09 12:20:09;;;;;;;10.00;0.85;;;7.10;98.80;;;;;;5068259;28;20030;-71
2022/01/09 12:22:45;;;;;;;11.75;0.73;;;7.00;98.80;;;;;;5051371;28;20130;-71
2022/01/09 12:25:32;;;;;;;6.00;0.50;;;7.00;98.90;;;;;;5072615;28;20484;-71
2022/01/09 12:28:10;;;;;;;13.43;0.82;;;7.00;99.00;;;;;;5071020;28;20123;-69
2022/01/09 12:30:52;;;;;;;6.93;0.70;;;7.00;98.90;;;;;;5072701;28;20071;-70
2022/01/09 12:33:27;;;;;;;7.53;0.73;;;7.00;99.00;;;;;;5072606;28;20055;-69
2022/01/09 12:36:04;;;;;;;9.43;0.60;;;7.10;98.80;;;;;;5071675;28;20123;-71
2022/01/09 12:38:33;;;;;;;4.20;0.30;;;7.10;98.90;;;;;;5053898;28;20047;-70
2022/01/09 12:41:11;;;;;;;8.23;0.63;;;7.10;98.70;;;;;;5067423;28;20048;-69
2022/01/09 12:43:39;;;;;;;10.90;0.60;;;7.10;98.60;;;;;;5066540;28;20063;-71
2022/01/09 12:46:12;;;;;;;9.27;0.60;;;7.00;98.50;;;;;;5071824;28;20058;-71
2022/01/09 12:48:40;;;;;;;4.95;0.52;;;7.00;98.40;;;;;;5051100;28;20080;-70
2022/01/09 12:51:08;;;;;;;7.93;0.60;;;6.90;98.50;;;;;;5037328;28;20051;-69
2022/01/09 12:53:49;;;;;;;5.70;0.50;;;6.80;98.70;;;;;;5057700;28;20046;-70
2022/01/09 12:56:20;;;;;;;4.53;0.50;;;6.80;98.70;;;;;;5069357;28;20058;-71
2022/01/09 12:58:51;;;;;;;11.98;0.70;;;6.70;98.80;;;;;;5060243;28;20100;-71